sensor_id;sensor_type;location;lat;lon;timestamp;P1;durP1;ratioP1;P2;durP2;ratioP2
47796;SDS011;33558;50.922;14.068;2024-01-30T00:01:51;30.03;;;16.53;;
47796;SDS011;33558;50.922;14.068;2024-01-30T00:04:17;27.90;;;15.43;;
47796;SDS011;33558;50.922;14.068;2024-01-30T00:06:44;28.80;;;15.87;;
47796;SDS011;33558;50.922;14.068;2024-01-30T00:09:12;31.23;;;15.73;;
47796;SDS011;33558;50.922;14.068;2024-01-30T00:11:39;28.00;;;14.87;;
47796;SDS011;33558;50.922;14.068;2024-01-30T00:14:06;28.27;;;14.37;;
47796;SDS011;33558;50.922;14.068;2024-01-30T00:16:32;27.57;;;15.87;;
47796;SDS011;33558;50.922;14.068;2024-01-30T00:18:59;27.53;;;15.90;;
47796;SDS011;33558;50.922;14.068;2024-01-30T00:21:27;26.60;;;14.43;;
47796;SDS011;33558;50.922;14.068;2024-01-30T00:23:54;29.77;;;15.23;;
47796;SDS011;33558;50.922;14.068;2024-01-30T00:26:22;29.73;;;15.00;;
47796;SDS011;33558;50.922;14.068;2024-01-30T00:28:48;27.03;;;15.03;;
47796;SDS011;33558;50.922;14.068;2024-01-30T00:31:15;27.37;;;15.73;;
47796;SDS011;33558;50.922;14.068;2024-01-30T00:33:41;30.03;;;15.13;;
47796;SDS011;33558;50.922;14.068;2024-01-30T00:36:08;33.37;;;16.40;;
47796;SDS011;33558;50.922;14.068;2024-01-30T00:38:35;31.63;;;16.93;;
47796;SDS011;33558;50.922;14.068;2024-01-30T00:41:03;31.40;;;16.93;;
47796;SDS011;33558;50.922;14.068;2024-01-30T00:43:31;29.93;;;17.23;;
47796;SDS011;33558;50.922;14.068;2024-01-30T00:45:58;33.70;;;16.40;;
47796;SDS011;33558;50.922;14.068;2024-01-30T00:48:24;30.93;;;15.03;;
47796;SDS011;33558;50.922;14.068;2024-01-30T00:50:51;26.77;;;16.27;;
47796;SDS011;33558;50.922;14.068;2024-01-30T00:53:18;27.03;;;15.37;;
47796;SDS011;33558;50.922;14.068;2024-01-30T00:55:44;26.67;;;14.27;;
47796;SDS011;33558;50.922;14.068;2024-01-30T00:58:11;23.60;;;14.47;;
47796;SDS011;33558;50.922;14.068;2024-01-30T01:00:39;30.90;;;15.23;;
47796;SDS011;33558;50.922;14.068;2024-01-30T01:03:06;26.13;;;13.30;;
47796;SDS011;33558;50.922;14.068;2024-01-30T01:05:33;27.30;;;13.73;;
47796;SDS011;33558;50.922;14.068;2024-01-30T01:07:59;24.93;;;13.23;;
47796;SDS011;33558;50.922;14.068;2024-01-30T01:10:26;23.50;;;13.70;;
47796;SDS011;33558;50.922;14.068;2024-01-30T01:12:53;26.23;;;13.87;;
47796;SDS011;33558;50.922;14.068;2024-01-30T01:15:20;25.63;;;14.43;;
47796;SDS011;33558;50.922;14.068;2024-01-30T01:17:48;28.20;;;14.50;;
47796;SDS011;33558;50.922;14.068;2024-01-30T01:20:15;26.80;;;14.57;;
47796;SDS011;33558;50.922;14.068;2024-01-30T01:22:41;23.53;;;13.40;;
47796;SDS011;33558;50.922;14.068;2024-01-30T01:25:08;24.30;;;13.37;;
47796;SDS011;33558;50.922;14.068;2024-01-30T01:27:35;27.17;;;13.97;;
47796;SDS011;33558;50.922;14.068;2024-01-30T01:30:06;27.77;;;14.13;;
47796;SDS011;33558;50.922;14.068;2024-01-30T01:32:35;28.43;;;15.57;;
47796;SDS011;33558;50.922;14.068;2024-01-30T01:35:05;28.43;;;14.90;;
47796;SDS011;33558;50.922;14.068;2024-01-30T01:37:31;32.07;;;14.83;;
47796;SDS011;33558;50.922;14.068;2024-01-30T01:39:58;34.93;;;16.47;;
47796;SDS011;33558;50.922;14.068;2024-01-30T01:42:24;30.27;;;15.83;;
47796;SDS011;33558;50.922;14.068;2024-01-30T01:44:51;29.07;;;15.20;;
47796;SDS011;33558;50.922;14.068;2024-01-30T01:47:18;28.03;;;15.43;;
47796;SDS011;33558;50.922;14.068;2024-01-30T01:49:44;35.77;;;15.70;;
47796;SDS011;33558;50.922;14.068;2024-01-30T01:52:13;33.33;;;17.30;;
47796;SDS011;33558;50.922;14.068;2024-01-30T01:54:39;31.10;;;15.87;;
47796;SDS011;33558;50.922;14.068;2024-01-30T01:57:06;33.17;;;15.23;;
47796;SDS011;33558;50.922;14.068;2024-01-30T01:59:33;24.10;;;14.57;;
47796;SDS011;33558;50.922;14.068;2024-01-30T02:01:59;28.60;;;14.90;;
47796;SDS011;33558;50.922;14.068;2024-01-30T02:04:28;30.30;;;14.90;;
47796;SDS011;33558;50.922;14.068;2024-01-30T02:06:55;28.33;;;14.77;;
47796;SDS011;33558;50.922;14.068;2024-01-30T02:09:23;35.77;;;17.03;;
47796;SDS011;33558;50.922;14.068;2024-01-30T02:11:49;30.83;;;15.63;;
47796;SDS011;33558;50.922;14.068;2024-01-30T02:14:16;30.37;;;15.77;;
47796;SDS011;33558;50.922;14.068;2024-01-30T02:16:42;30.60;;;16.07;;
47796;SDS011;33558;50.922;14.068;2024-01-30T02:19:09;32.27;;;15.57;;
47796;SDS011;33558;50.922;14.068;2024-01-30T02:21:37;30.60;;;15.83;;
47796;SDS011;33558;50.922;14.068;2024-01-30T02:24:04;30.53;;;15.57;;
47796;SDS011;33558;50.922;14.068;2024-01-30T02:26:32;28.07;;;15.20;;
47796;SDS011;33558;50.922;14.068;2024-01-30T02:28:58;27.97;;;15.07;;
47796;SDS011;33558;50.922;14.068;2024-01-30T02:31:25;36.00;;;16.40;;
47796;SDS011;33558;50.922;14.068;2024-01-30T02:33:51;31.23;;;16.83;;
47796;SDS011;33558;50.922;14.068;2024-01-30T02:36:18;30.57;;;15.87;;
47796;SDS011;33558;50.922;14.068;2024-01-30T02:38:46;33.07;;;16.27;;
47796;SDS011;33558;50.922;14.068;2024-01-30T02:41:13;31.30;;;16.00;;
47796;SDS011;33558;50.922;14.068;2024-01-30T02:43:39;33.40;;;16.00;;
47796;SDS011;33558;50.922;14.068;2024-01-30T02:46:06;31.93;;;16.43;;
47796;SDS011;33558;50.922;14.068;2024-01-30T02:48:33;31.77;;;15.77;;
47796;SDS011;33558;50.922;14.068;2024-01-30T02:50:59;32.47;;;16.53;;
47796;SDS011;33558;50.922;14.068;2024-01-30T02:53:26;32.40;;;16.20;;
47796;SDS011;33558;50.922;14.068;2024-01-30T02:55:54;31.57;;;16.07;;
47796;SDS011;33558;50.922;14.068;2024-01-30T02:58:20;32.80;;;15.93;;
47796;SDS011;33558;50.922;14.068;2024-01-30T03:00:47;30.73;;;16.07;;
47796;SDS011;33558;50.922;14.068;2024-01-30T03:03:14;31.27;;;16.67;;
47796;SDS011;33558;50.922;14.068;2024-01-30T03:05:40;34.50;;;15.90;;
47796;SDS011;33558;50.922;14.068;2024-01-30T03:08:07;31.90;;;16.27;;
47796;SDS011;33558;50.922;14.068;2024-01-30T03:10:33;31.70;;;16.20;;
47796;SDS011;33558;50.922;14.068;2024-01-30T03:13:01;31.17;;;16.30;;
47796;SDS011;33558;50.922;14.068;2024-01-30T03:15:28;32.23;;;15.93;;
47796;SDS011;33558;50.922;14.068;2024-01-30T03:17:55;30.53;;;16.20;;
47796;SDS011;33558;50.922;14.068;2024-01-30T03:20:21;30.87;;;15.60;;
47796;SDS011;33558;50.922;14.068;2024-01-30T03:22:48;33.07;;;16.73;;
47796;SDS011;33558;50.922;14.068;2024-01-30T03:25:14;37.23;;;17.00;;
47796;SDS011;33558;50.922;14.068;2024-01-30T03:27:41;30.23;;;16.60;;
47796;SDS011;33558;50.922;14.068;2024-01-30T03:30:09;33.70;;;18.07;;
47796;SDS011;33558;50.922;14.068;2024-01-30T03:32:36;37.70;;;17.57;;
47796;SDS011;33558;50.922;14.068;2024-01-30T03:35:03;35.43;;;16.53;;
47796;SDS011;33558;50.922;14.068;2024-01-30T03:37:30;38.77;;;17.43;;
47796;SDS011;33558;50.922;14.068;2024-01-30T03:39:56;32.20;;;17.10;;
47796;SDS011;33558;50.922;14.068;2024-01-30T03:42:23;36.73;;;17.97;;
47796;SDS011;33558;50.922;14.068;2024-01-30T03:44:50;35.80;;;19.00;;
47796;SDS011;33558;50.922;14.068;2024-01-30T03:47:20;38.13;;;18.60;;
47796;SDS011;33558;50.922;14.068;2024-01-30T03:49:47;36.17;;;19.67;;
47796;SDS011;33558;50.922;14.068;2024-01-30T03:52:13;36.67;;;19.17;;
47796;SDS011;33558;50.922;14.068;2024-01-30T03:54:40;30.93;;;16.37;;
47796;SDS011;33558;50.922;14.068;2024-01-30T03:57:06;36.30;;;17.77;;
47796;SDS011;33558;50.922;14.068;2024-01-30T03:59:33;34.53;;;17.50;;
47796;SDS011;33558;50.922;14.068;2024-01-30T04:02:00;30.97;;;15.47;;
47796;SDS011;33558;50.922;14.068;2024-01-30T04:04:28;35.47;;;18.07;;
47796;SDS011;33558;50.922;14.068;2024-01-30T04:06:54;38.50;;;19.00;;
47796;SDS011;33558;50.922;14.068;2024-01-30T04:09:21;34.93;;;16.23;;
47796;SDS011;33558;50.922;14.068;2024-01-30T04:11:47;36.90;;;17.20;;
47796;SDS011;33558;50.922;14.068;2024-01-30T04:14:14;34.37;;;17.00;;
47796;SDS011;33558;50.922;14.068;2024-01-30T04:16:41;31.40;;;16.27;;
47796;SDS011;33558;50.922;14.068;2024-01-30T04:19:08;38.17;;;18.50;;
47796;SDS011;33558;50.922;14.068;2024-01-30T04:21:35;33.77;;;16.73;;
47796;SDS011;33558;50.922;14.068;2024-01-30T04:24:02;32.90;;;16.50;;
47796;SDS011;33558;50.922;14.068;2024-01-30T04:26:29;33.43;;;17.63;;
47796;SDS011;33558;50.922;14.068;2024-01-30T04:28:56;33.20;;;17.53;;
47796;SDS011;33558;50.922;14.068;2024-01-30T04:31:22;30.33;;;15.67;;
47796;SDS011;33558;50.922;14.068;2024-01-30T04:33:49;36.80;;;18.20;;
47796;SDS011;33558;50.922;14.068;2024-01-30T04:36:15;32.77;;;17.47;;
47796;SDS011;33558;50.922;14.068;2024-01-30T04:38:43;34.53;;;17.67;;
47796;SDS011;33558;50.922;14.068;2024-01-30T04:41:10;32.30;;;17.17;;
47796;SDS011;33558;50.922;14.068;2024-01-30T04:43:37;31.33;;;15.87;;
47796;SDS011;33558;50.922;14.068;2024-01-30T04:46:03;33.60;;;17.53;;
47796;SDS011;33558;50.922;14.068;2024-01-30T04:48:30;28.43;;;15.43;;
47796;SDS011;33558;50.922;14.068;2024-01-30T04:50:57;31.50;;;17.10;;
47796;SDS011;33558;50.922;14.068;2024-01-30T04:53:23;35.43;;;17.17;;
47796;SDS011;33558;50.922;14.068;2024-01-30T04:55:51;27.57;;;15.57;;
47796;SDS011;33558;50.922;14.068;2024-01-30T04:58:18;32.13;;;16.73;;
47796;SDS011;33558;50.922;14.068;2024-01-30T05:00:45;32.97;;;15.77;;
47796;SDS011;33558;50.922;14.068;2024-01-30T05:03:16;33.40;;;15.70;;
47796;SDS011;33558;50.922;14.068;2024-01-30T05:05:43;31.43;;;16.30;;
47796;SDS011;33558;50.922;14.068;2024-01-30T05:08:09;31.70;;;15.17;;
47796;SDS011;33558;50.922;14.068;2024-01-30T05:10:36;30.10;;;16.10;;
47796;SDS011;33558;50.922;14.068;2024-01-30T05:13:04;31.07;;;16.83;;
47796;SDS011;33558;50.922;14.068;2024-01-30T05:15:31;36.83;;;17.33;;
47796;SDS011;33558;50.922;14.068;2024-01-30T05:17:57;35.50;;;16.73;;
47796;SDS011;33558;50.922;14.068;2024-01-30T05:20:24;26.63;;;16.33;;
47796;SDS011;33558;50.922;14.068;2024-01-30T05:22:53;31.17;;;16.43;;
47796;SDS011;33558;50.922;14.068;2024-01-30T05:25:19;25.57;;;15.93;;
47796;SDS011;33558;50.922;14.068;2024-01-30T05:27:46;27.63;;;16.33;;
47796;SDS011;33558;50.922;14.068;2024-01-30T05:30:14;35.60;;;17.43;;
47796;SDS011;33558;50.922;14.068;2024-01-30T05:32:41;29.90;;;16.43;;
47796;SDS011;33558;50.922;14.068;2024-01-30T05:35:08;28.03;;;15.63;;
47796;SDS011;33558;50.922;14.068;2024-01-30T05:37:34;27.00;;;15.87;;
47796;SDS011;33558;50.922;14.068;2024-01-30T05:40:01;28.53;;;15.80;;
47796;SDS011;33558;50.922;14.068;2024-01-30T05:42:28;33.43;;;16.60;;
47796;SDS011;33558;50.922;14.068;2024-01-30T05:44:54;27.00;;;14.50;;
47796;SDS011;33558;50.922;14.068;2024-01-30T05:47:22;32.77;;;15.80;;
47796;SDS011;33558;50.922;14.068;2024-01-30T05:49:49;30.07;;;16.23;;
47796;SDS011;33558;50.922;14.068;2024-01-30T05:52:15;32.40;;;16.53;;
47796;SDS011;33558;50.922;14.068;2024-01-30T05:54:43;31.93;;;15.83;;
47796;SDS011;33558;50.922;14.068;2024-01-30T05:57:10;31.27;;;16.60;;
47796;SDS011;33558;50.922;14.068;2024-01-30T05:59:37;31.30;;;17.17;;
47796;SDS011;33558;50.922;14.068;2024-01-30T06:02:03;30.03;;;17.20;;
47796;SDS011;33558;50.922;14.068;2024-01-30T06:04:31;29.50;;;16.00;;
47796;SDS011;33558;50.922;14.068;2024-01-30T06:06:58;28.90;;;15.57;;
47796;SDS011;33558;50.922;14.068;2024-01-30T06:09:26;33.87;;;17.00;;
47796;SDS011;33558;50.922;14.068;2024-01-30T06:11:53;31.57;;;15.77;;
47796;SDS011;33558;50.922;14.068;2024-01-30T06:14:20;29.57;;;15.27;;
47796;SDS011;33558;50.922;14.068;2024-01-30T06:16:46;28.73;;;15.33;;
47796;SDS011;33558;50.922;14.068;2024-01-30T06:19:13;32.87;;;15.57;;
47796;SDS011;33558;50.922;14.068;2024-01-30T06:21:41;29.43;;;16.47;;
47796;SDS011;33558;50.922;14.068;2024-01-30T06:24:07;27.73;;;15.87;;
47796;SDS011;33558;50.922;14.068;2024-01-30T06:26:34;30.60;;;15.60;;
47796;SDS011;33558;50.922;14.068;2024-01-30T06:29:01;31.00;;;16.93;;
47796;SDS011;33558;50.922;14.068;2024-01-30T06:31:28;34.77;;;16.90;;
47796;SDS011;33558;50.922;14.068;2024-01-30T06:33:56;32.53;;;16.60;;
47796;SDS011;33558;50.922;14.068;2024-01-30T06:36:22;31.70;;;15.47;;
47796;SDS011;33558;50.922;14.068;2024-01-30T06:38:50;33.03;;;16.93;;
47796;SDS011;33558;50.922;14.068;2024-01-30T06:41:17;30.50;;;17.33;;
47796;SDS011;33558;50.922;14.068;2024-01-30T06:43:43;33.03;;;17.47;;
47796;SDS011;33558;50.922;14.068;2024-01-30T06:46:11;30.13;;;15.57;;
47796;SDS011;33558;50.922;14.068;2024-01-30T06:48:38;32.47;;;17.03;;
47796;SDS011;33558;50.922;14.068;2024-01-30T06:51:05;28.97;;;16.17;;
47796;SDS011;33558;50.922;14.068;2024-01-30T06:53:32;29.10;;;15.83;;
47796;SDS011;33558;50.922;14.068;2024-01-30T06:56:00;29.40;;;16.07;;
47796;SDS011;33558;50.922;14.068;2024-01-30T06:58:26;29.40;;;17.10;;
47796;SDS011;33558;50.922;14.068;2024-01-30T07:00:53;35.20;;;17.40;;
47796;SDS011;33558;50.922;14.068;2024-01-30T07:03:20;28.33;;;15.13;;
47796;SDS011;33558;50.922;14.068;2024-01-30T07:05:47;29.53;;;16.03;;
47796;SDS011;33558;50.922;14.068;2024-01-30T07:08:14;27.10;;;15.13;;
47796;SDS011;33558;50.922;14.068;2024-01-30T07:10:42;29.40;;;15.43;;
47796;SDS011;33558;50.922;14.068;2024-01-30T07:13:10;27.67;;;15.67;;
47796;SDS011;33558;50.922;14.068;2024-01-30T07:15:37;31.23;;;16.00;;
47796;SDS011;33558;50.922;14.068;2024-01-30T07:18:05;29.37;;;16.27;;
47796;SDS011;33558;50.922;14.068;2024-01-30T07:20:32;30.77;;;16.70;;
47796;SDS011;33558;50.922;14.068;2024-01-30T07:23:00;25.90;;;14.93;;
47796;SDS011;33558;50.922;14.068;2024-01-30T07:25:27;26.37;;;15.23;;
47796;SDS011;33558;50.922;14.068;2024-01-30T07:27:54;26.60;;;14.93;;
47796;SDS011;33558;50.922;14.068;2024-01-30T07:30:23;29.87;;;16.10;;
47796;SDS011;33558;50.922;14.068;2024-01-30T07:32:49;28.47;;;14.70;;
47796;SDS011;33558;50.922;14.068;2024-01-30T07:35:16;28.93;;;15.07;;
47796;SDS011;33558;50.922;14.068;2024-01-30T07:37:42;28.30;;;15.50;;
47796;SDS011;33558;50.922;14.068;2024-01-30T07:40:09;28.50;;;15.30;;
47796;SDS011;33558;50.922;14.068;2024-01-30T07:42:36;21.23;;;13.17;;
47796;SDS011;33558;50.922;14.068;2024-01-30T07:45:03;27.17;;;14.23;;
47796;SDS011;33558;50.922;14.068;2024-01-30T07:47:31;26.80;;;14.30;;
47796;SDS011;33558;50.922;14.068;2024-01-30T07:49:58;26.53;;;15.07;;
47796;SDS011;33558;50.922;14.068;2024-01-30T07:52:24;25.50;;;13.30;;
47796;SDS011;33558;50.922;14.068;2024-01-30T07:54:51;24.07;;;14.43;;
47796;SDS011;33558;50.922;14.068;2024-01-30T07:57:18;27.70;;;15.00;;
47796;SDS011;33558;50.922;14.068;2024-01-30T07:59:44;23.87;;;14.20;;
47796;SDS011;33558;50.922;14.068;2024-01-30T08:02:11;26.37;;;14.97;;
47796;SDS011;33558;50.922;14.068;2024-01-30T08:04:39;23.03;;;14.10;;
47796;SDS011;33558;50.922;14.068;2024-01-30T08:07:06;25.23;;;14.30;;
47796;SDS011;33558;50.922;14.068;2024-01-30T08:09:33;26.97;;;13.77;;
47796;SDS011;33558;50.922;14.068;2024-01-30T08:11:59;27.40;;;14.67;;
47796;SDS011;33558;50.922;14.068;2024-01-30T08:14:26;26.50;;;14.47;;
47796;SDS011;33558;50.922;14.068;2024-01-30T08:16:53;27.47;;;14.40;;
47796;SDS011;33558;50.922;14.068;2024-01-30T08:19:20;24.27;;;13.63;;
47796;SDS011;33558;50.922;14.068;2024-01-30T08:21:48;24.50;;;13.57;;
47796;SDS011;33558;50.922;14.068;2024-01-30T08:24:15;24.30;;;13.30;;
47796;SDS011;33558;50.922;14.068;2024-01-30T08:26:41;24.97;;;13.83;;
47796;SDS011;33558;50.922;14.068;2024-01-30T08:29:08;27.60;;;14.17;;
47796;SDS011;33558;50.922;14.068;2024-01-30T08:31:35;25.97;;;14.43;;
47796;SDS011;33558;50.922;14.068;2024-01-30T08:34:01;27.10;;;15.70;;
47796;SDS011;33558;50.922;14.068;2024-01-30T08:36:28;26.53;;;14.87;;
47796;SDS011;33558;50.922;14.068;2024-01-30T08:38:56;25.33;;;13.50;;
47796;SDS011;33558;50.922;14.068;2024-01-30T08:41:22;23.47;;;13.83;;
47796;SDS011;33558;50.922;14.068;2024-01-30T08:43:49;24.73;;;13.97;;
47796;SDS011;33558;50.922;14.068;2024-01-30T08:46:17;24.57;;;14.17;;
47796;SDS011;33558;50.922;14.068;2024-01-30T08:48:44;25.27;;;15.00;;
47796;SDS011;33558;50.922;14.068;2024-01-30T08:51:10;25.07;;;14.13;;
47796;SDS011;33558;50.922;14.068;2024-01-30T08:53:37;28.03;;;15.60;;
47796;SDS011;33558;50.922;14.068;2024-01-30T08:56:05;28.07;;;14.33;;
47796;SDS011;33558;50.922;14.068;2024-01-30T08:58:33;25.20;;;14.43;;
47796;SDS011;33558;50.922;14.068;2024-01-30T09:00:59;27.67;;;14.87;;
47796;SDS011;33558;50.922;14.068;2024-01-30T09:03:26;30.40;;;15.33;;
47796;SDS011;33558;50.922;14.068;2024-01-30T09:05:52;24.50;;;14.17;;
47796;SDS011;33558;50.922;14.068;2024-01-30T09:08:19;28.20;;;16.03;;
47796;SDS011;33558;50.922;14.068;2024-01-30T09:10:46;24.57;;;14.03;;
47796;SDS011;33558;50.922;14.068;2024-01-30T09:13:14;27.07;;;14.20;;
47796;SDS011;33558;50.922;14.068;2024-01-30T09:15:41;25.07;;;14.23;;
47796;SDS011;33558;50.922;14.068;2024-01-30T09:18:08;28.57;;;14.40;;
47796;SDS011;33558;50.922;14.068;2024-01-30T09:20:35;27.47;;;15.73;;
47796;SDS011;33558;50.922;14.068;2024-01-30T09:23:02;26.53;;;15.60;;
47796;SDS011;33558;50.922;14.068;2024-01-30T09:25:28;24.87;;;14.60;;
47796;SDS011;33558;50.922;14.068;2024-01-30T09:27:55;25.23;;;15.03;;
47796;SDS011;33558;50.922;14.068;2024-01-30T09:30:23;24.37;;;14.27;;
47796;SDS011;33558;50.922;14.068;2024-01-30T09:32:50;24.50;;;14.00;;
47796;SDS011;33558;50.922;14.068;2024-01-30T09:35:16;27.80;;;15.37;;
47796;SDS011;33558;50.922;14.068;2024-01-30T09:37:43;25.13;;;14.33;;
47796;SDS011;33558;50.922;14.068;2024-01-30T09:40:09;26.67;;;14.20;;
47796;SDS011;33558;50.922;14.068;2024-01-30T09:42:36;24.97;;;14.33;;
47796;SDS011;33558;50.922;14.068;2024-01-30T09:45:03;25.67;;;15.23;;
47796;SDS011;33558;50.922;14.068;2024-01-30T09:47:32;24.97;;;15.40;;
47796;SDS011;33558;50.922;14.068;2024-01-30T09:50:06;29.40;;;15.10;;
47796;SDS011;33558;50.922;14.068;2024-01-30T09:52:33;27.20;;;15.20;;
47796;SDS011;33558;50.922;14.068;2024-01-30T09:55:00;26.30;;;16.53;;
47796;SDS011;33558;50.922;14.068;2024-01-30T09:57:27;29.97;;;16.80;;
47796;SDS011;33558;50.922;14.068;2024-01-30T09:59:54;28.47;;;15.60;;
47796;SDS011;33558;50.922;14.068;2024-01-30T10:02:20;25.80;;;15.00;;
47796;SDS011;33558;50.922;14.068;2024-01-30T10:04:49;27.87;;;16.00;;
47796;SDS011;33558;50.922;14.068;2024-01-30T10:07:16;26.27;;;14.87;;
47796;SDS011;33558;50.922;14.068;2024-01-30T10:09:43;27.47;;;15.40;;
47796;SDS011;33558;50.922;14.068;2024-01-30T10:12:11;28.27;;;15.33;;
47796;SDS011;33558;50.922;14.068;2024-01-30T10:14:38;26.53;;;15.30;;
47796;SDS011;33558;50.922;14.068;2024-01-30T10:17:06;36.00;;;16.73;;
47796;SDS011;33558;50.922;14.068;2024-01-30T10:19:33;27.97;;;15.27;;
47796;SDS011;33558;50.922;14.068;2024-01-30T10:22:02;26.40;;;16.30;;
47796;SDS011;33558;50.922;14.068;2024-01-30T10:24:28;28.70;;;16.50;;
47796;SDS011;33558;50.922;14.068;2024-01-30T10:26:55;25.80;;;15.70;;
47796;SDS011;33558;50.922;14.068;2024-01-30T10:29:22;32.90;;;17.87;;
47796;SDS011;33558;50.922;14.068;2024-01-30T10:31:57;31.93;;;16.93;;
47796;SDS011;33558;50.922;14.068;2024-01-30T10:34:24;26.00;;;15.18;;
47796;SDS011;33558;50.922;14.068;2024-01-30T10:36:51;28.67;;;15.33;;
47796;SDS011;33558;50.922;14.068;2024-01-30T10:39:25;28.37;;;15.50;;
47796;SDS011;33558;50.922;14.068;2024-01-30T10:41:55;30.60;;;15.90;;
47796;SDS011;33558;50.922;14.068;2024-01-30T10:44:22;29.50;;;17.30;;
47796;SDS011;33558;50.922;14.068;2024-01-30T10:46:50;26.83;;;15.90;;
47796;SDS011;33558;50.922;14.068;2024-01-30T10:49:27;29.10;;;15.73;;
47796;SDS011;33558;50.922;14.068;2024-01-30T10:51:55;30.93;;;16.47;;
47796;SDS011;33558;50.922;14.068;2024-01-30T10:54:23;27.90;;;15.67;;
47796;SDS011;33558;50.922;14.068;2024-01-30T10:56:52;29.47;;;16.37;;
47796;SDS011;33558;50.922;14.068;2024-01-30T10:59:19;27.73;;;15.27;;
47796;SDS011;33558;50.922;14.068;2024-01-30T11:01:47;28.40;;;16.77;;
47796;SDS011;33558;50.922;14.068;2024-01-30T11:04:15;28.83;;;17.17;;
47796;SDS011;33558;50.922;14.068;2024-01-30T11:06:42;27.03;;;15.47;;
47796;SDS011;33558;50.922;14.068;2024-01-30T11:09:10;26.00;;;14.67;;
47796;SDS011;33558;50.922;14.068;2024-01-30T11:11:51;28.67;;;14.60;;
47796;SDS011;33558;50.922;14.068;2024-01-30T11:20:02;28.50;;;15.50;;
47796;SDS011;33558;50.922;14.068;2024-01-30T11:22:30;28.60;;;14.73;;
47796;SDS011;33558;50.922;14.068;2024-01-30T11:24:57;28.67;;;15.23;;
47796;SDS011;33558;50.922;14.068;2024-01-30T11:27:26;26.43;;;14.57;;
47796;SDS011;33558;50.922;14.068;2024-01-30T11:29:53;28.10;;;15.93;;
47796;SDS011;33558;50.922;14.068;2024-01-30T11:32:22;29.80;;;16.90;;
47796;SDS011;33558;50.922;14.068;2024-01-30T11:34:49;26.97;;;15.17;;
47796;SDS011;33558;50.922;14.068;2024-01-30T11:37:17;28.40;;;15.33;;
47796;SDS011;33558;50.922;14.068;2024-01-30T11:39:46;26.00;;;14.13;;
47796;SDS011;33558;50.922;14.068;2024-01-30T11:42:14;30.70;;;15.87;;
47796;SDS011;33558;50.922;14.068;2024-01-30T11:44:46;28.97;;;15.03;;
47796;SDS011;33558;50.922;14.068;2024-01-30T11:47:13;28.90;;;15.80;;
47796;SDS011;33558;50.922;14.068;2024-01-30T11:49:41;26.70;;;15.50;;
47796;SDS011;33558;50.922;14.068;2024-01-30T11:52:08;29.00;;;17.20;;
47796;SDS011;33558;50.922;14.068;2024-01-30T11:54:35;30.53;;;17.20;;
47796;SDS011;33558;50.922;14.068;2024-01-30T11:57:02;31.17;;;16.37;;
47796;SDS011;33558;50.922;14.068;2024-01-30T11:59:31;29.30;;;15.80;;
47796;SDS011;33558;50.922;14.068;2024-01-30T12:01:59;28.87;;;16.47;;
47796;SDS011;33558;50.922;14.068;2024-01-30T12:04:27;30.50;;;16.37;;
47796;SDS011;33558;50.922;14.068;2024-01-30T12:06:54;26.67;;;15.83;;
47796;SDS011;33558;50.922;14.068;2024-01-30T12:09:21;26.03;;;15.47;;
47796;SDS011;33558;50.922;14.068;2024-01-30T12:11:48;30.93;;;16.67;;
47796;SDS011;33558;50.922;14.068;2024-01-30T12:14:15;28.40;;;15.53;;
47796;SDS011;33558;50.922;14.068;2024-01-30T12:16:42;30.00;;;16.60;;
47796;SDS011;33558;50.922;14.068;2024-01-30T12:19:10;28.07;;;15.30;;
47796;SDS011;33558;50.922;14.068;2024-01-30T12:21:38;28.80;;;15.77;;
47796;SDS011;33558;50.922;14.068;2024-01-30T12:24:05;28.13;;;15.80;;
47796;SDS011;33558;50.922;14.068;2024-01-30T12:26:32;29.33;;;15.63;;
47796;SDS011;33558;50.922;14.068;2024-01-30T12:28:59;29.20;;;17.47;;
47796;SDS011;33558;50.922;14.068;2024-01-30T12:31:26;29.23;;;17.03;;
47796;SDS011;33558;50.922;14.068;2024-01-30T12:33:53;29.90;;;15.93;;
47796;SDS011;33558;50.922;14.068;2024-01-30T12:36:22;29.60;;;16.00;;
47796;SDS011;33558;50.922;14.068;2024-01-30T12:38:49;31.30;;;17.97;;
47796;SDS011;33558;50.922;14.068;2024-01-30T12:41:16;30.60;;;17.10;;
47796;SDS011;33558;50.922;14.068;2024-01-30T12:43:43;29.27;;;16.43;;
47796;SDS011;33558;50.922;14.068;2024-01-30T12:46:09;32.53;;;18.27;;
47796;SDS011;33558;50.922;14.068;2024-01-30T12:48:36;31.10;;;17.30;;
47796;SDS011;33558;50.922;14.068;2024-01-30T12:51:03;33.80;;;18.00;;
47796;SDS011;33558;50.922;14.068;2024-01-30T12:53:31;30.67;;;17.07;;
47796;SDS011;33558;50.922;14.068;2024-01-30T12:55:58;28.57;;;16.77;;
47796;SDS011;33558;50.922;14.068;2024-01-30T12:58:25;31.23;;;17.70;;
47796;SDS011;33558;50.922;14.068;2024-01-30T13:00:51;30.63;;;17.13;;
47796;SDS011;33558;50.922;14.068;2024-01-30T13:03:20;32.17;;;16.57;;
47796;SDS011;33558;50.922;14.068;2024-01-30T13:05:47;29.43;;;17.20;;
47796;SDS011;33558;50.922;14.068;2024-01-30T13:08:13;29.90;;;16.63;;
47796;SDS011;33558;50.922;14.068;2024-01-30T13:10:41;32.27;;;17.57;;
47796;SDS011;33558;50.922;14.068;2024-01-30T13:13:08;31.90;;;16.30;;
47796;SDS011;33558;50.922;14.068;2024-01-30T13:15:35;27.03;;;15.90;;
47796;SDS011;33558;50.922;14.068;2024-01-30T13:18:01;30.17;;;15.93;;
47796;SDS011;33558;50.922;14.068;2024-01-30T13:20:28;29.30;;;16.20;;
47796;SDS011;33558;50.922;14.068;2024-01-30T13:22:55;29.30;;;15.53;;
47796;SDS011;33558;50.922;14.068;2024-01-30T13:25:23;34.40;;;17.33;;
47796;SDS011;33558;50.922;14.068;2024-01-30T13:27:51;27.60;;;15.70;;
47796;SDS011;33558;50.922;14.068;2024-01-30T13:30:18;27.80;;;14.97;;
47796;SDS011;33558;50.922;14.068;2024-01-30T13:32:44;31.07;;;16.30;;
47796;SDS011;33558;50.922;14.068;2024-01-30T13:35:11;31.70;;;16.07;;
47796;SDS011;33558;50.922;14.068;2024-01-30T13:37:38;30.33;;;16.70;;
47796;SDS011;33558;50.922;14.068;2024-01-30T13:40:07;29.87;;;16.03;;
47796;SDS011;33558;50.922;14.068;2024-01-30T13:42:35;31.20;;;16.47;;
47796;SDS011;33558;50.922;14.068;2024-01-30T13:45:03;31.97;;;15.30;;
47796;SDS011;33558;50.922;14.068;2024-01-30T13:47:30;29.80;;;16.53;;
47796;SDS011;33558;50.922;14.068;2024-01-30T13:49:56;31.17;;;16.73;;
47796;SDS011;33558;50.922;14.068;2024-01-30T13:52:23;30.90;;;16.20;;
47796;SDS011;33558;50.922;14.068;2024-01-30T13:54:50;30.03;;;16.53;;
47796;SDS011;33558;50.922;14.068;2024-01-30T13:57:16;32.93;;;16.57;;
47796;SDS011;33558;50.922;14.068;2024-01-30T13:59:43;35.37;;;17.20;;
47796;SDS011;33558;50.922;14.068;2024-01-30T14:02:11;31.03;;;16.90;;
47796;SDS011;33558;50.922;14.068;2024-01-30T14:04:37;30.77;;;16.23;;
47796;SDS011;33558;50.922;14.068;2024-01-30T14:07:05;34.57;;;15.97;;
47796;SDS011;33558;50.922;14.068;2024-01-30T14:09:32;34.37;;;17.97;;
47796;SDS011;33558;50.922;14.068;2024-01-30T14:11:59;32.90;;;17.07;;
47796;SDS011;33558;50.922;14.068;2024-01-30T14:14:26;30.23;;;16.30;;